Sun Prairie, WI (53590)

12:42 PM CDT on May 22, 2015 (GMT -0500)
Northside School | | Change Station
CLOSE
Current Station
Personal Weather Station
Location: Sun Prairie, WI
Elevation: 1007 ft
Nearby Weather Stations

Elev 1007 ft 43.19 °N, 89.22 °W | Updated 2 seconds ago

Clear
Clear
67.4 °F
Feels Like 67.4 °F
N
0.0
Wind Variable Wind from WNW
Gusts 0.0 mph

Today
High -- | Low -- °F
--% Chance of Precip.
Yesterday
High -- | Low -- °F
Precip. -- in
5:26 AM 8:20 PM
Waxing Crescent, 23% visible
Pressure 30.23 in
Visibility 10.0 miles
Clouds Few 25000 ft
Dew Point 44 °F
Humidity 43%
Rainfall 0.00 in
Snow Depth Not available.
UV 10 out of 12
Pollen 8.50 out of 12
Air Quality Not available.
Flu Activity Sporadic
METAR KMSN 221653Z 14003KT 10SM FEW250 18/01 A3023 RMK AO2 SLP236 T01780011

More Conditions Fewer Conditions

Pressure 30.23 in
Visibility 10.0 miles
Clouds Few 25000 ft
Dew Point 44 °F
Humidity 43%
Rainfall 0.00 in
Snow Depth Not available.
UV 10 out of 12
Pollen 8.50 out of 12
Air Quality Not available.
Flu Activity Sporadic
METAR KMSN 221653Z 14003KT 10SM FEW250 18/01 A3023 RMK AO2 SLP236 T01780011

More Conditions Fewer Conditions

10-Day Weather Forecast

Almanac

Astronomy

May. 22, 2015 Rise Set
Actual Time
Civil Twilight
Nautical Twilight
Astronomical Twilight
Moon
Length of Visible Light
Length of Day
Tomorrow will be .
, % of the Moon is Illuminated

Today's Extremes

State Highs State Lows

Community

WunderPhotos

Upload Photos

1,823,269 photos uploaded!

WunderBlogs® & News

Nearby

Air Quality

  Air Quality AQ Index Pollutant
Not available.

Snow Depth

Station Depth Elevation

Earthquake Activity

City Distance Mag. Time & Date
Minimum magnitude displayed is 2.5.

Coastal Water Temperatures

Place Temperature

Stations

Nearby Weather Stations

Station Location Temp. Windchill Dew Point Humidity Wind Precip. Elev Updated Type